sensor_id;sensor_type;location;lat;lon;timestamp;temperature;humidity
5560;DHT22;2803;47.916;8.074;2023-10-31T00:01:01;13.50;99.90
5560;DHT22;2803;47.916;8.074;2023-10-31T00:03:27;13.40;99.90
5560;DHT22;2803;47.916;8.074;2023-10-31T00:05:54;13.00;99.90
5560;DHT22;2803;47.916;8.074;2023-10-31T00:08:20;12.00;99.90
5560;DHT22;2803;47.916;8.074;2023-10-31T00:10:47;11.80;99.90
5560;DHT22;2803;47.916;8.074;2023-10-31T00:13:14;12.20;99.90
5560;DHT22;2803;47.916;8.074;2023-10-31T00:15:40;12.60;99.90
5560;DHT22;2803;47.916;8.074;2023-10-31T00:18:08;12.60;99.90
5560;DHT22;2803;47.916;8.074;2023-10-31T00:20:35;12.40;99.90
5560;DHT22;2803;47.916;8.074;2023-10-31T00:23:02;12.20;99.90
5560;DHT22;2803;47.916;8.074;2023-10-31T00:25:28;12.00;99.90
5560;DHT22;2803;47.916;8.074;2023-10-31T00:27:55;11.90;99.90
5560;DHT22;2803;47.916;8.074;2023-10-31T00:30:22;11.50;99.90
5560;DHT22;2803;47.916;8.074;2023-10-31T00:32:48;11.40;99.90
5560;DHT22;2803;47.916;8.074;2023-10-31T00:35:16;11.30;99.90
5560;DHT22;2803;47.916;8.074;2023-10-31T00:37:43;11.10;99.90
5560;DHT22;2803;47.916;8.074;2023-10-31T00:40:10;11.20;99.90
5560;DHT22;2803;47.916;8.074;2023-10-31T00:42:37;10.90;99.90
5560;DHT22;2803;47.916;8.074;2023-10-31T00:45:06;10.70;99.90
5560;DHT22;2803;47.916;8.074;2023-10-31T00:47:33;10.60;99.90
5560;DHT22;2803;47.916;8.074;2023-10-31T00:50:00;10.60;99.90
5560;DHT22;2803;47.916;8.074;2023-10-31T00:52:28;10.60;99.90
5560;DHT22;2803;47.916;8.074;2023-10-31T00:54:54;10.70;99.90
5560;DHT22;2803;47.916;8.074;2023-10-31T00:57:21;10.90;99.90
5560;DHT22;2803;47.916;8.074;2023-10-31T00:59:48;10.80;99.90
5560;DHT22;2803;47.916;8.074;2023-10-31T01:02:14;10.90;99.90
5560;DHT22;2803;47.916;8.074;2023-10-31T01:04:41;11.20;99.90
5560;DHT22;2803;47.916;8.074;2023-10-31T01:07:08;11.40;99.90
5560;DHT22;2803;47.916;8.074;2023-10-31T01:09:38;11.50;99.90
5560;DHT22;2803;47.916;8.074;2023-10-31T01:12:05;11.00;99.90
5560;DHT22;2803;47.916;8.074;2023-10-31T01:14:32;10.90;99.90
5560;DHT22;2803;47.916;8.074;2023-10-31T01:17:00;11.00;99.90
5560;DHT22;2803;47.916;8.074;2023-10-31T01:19:28;11.20;99.90
5560;DHT22;2803;47.916;8.074;2023-10-31T01:21:54;11.40;99.90
5560;DHT22;2803;47.916;8.074;2023-10-31T01:24:21;11.60;99.90
5560;DHT22;2803;47.916;8.074;2023-10-31T01:26:50;11.60;99.90
5560;DHT22;2803;47.916;8.074;2023-10-31T01:29:16;11.30;99.90
5560;DHT22;2803;47.916;8.074;2023-10-31T01:31:43;11.60;99.90
5560;DHT22;2803;47.916;8.074;2023-10-31T01:34:10;11.40;99.90
5560;DHT22;2803;47.916;8.074;2023-10-31T01:36:36;11.50;99.90
5560;DHT22;2803;47.916;8.074;2023-10-31T01:39:03;11.50;99.90
5560;DHT22;2803;47.916;8.074;2023-10-31T01:41:30;11.30;99.90
5560;DHT22;2803;47.916;8.074;2023-10-31T01:43:58;11.40;99.90
5560;DHT22;2803;47.916;8.074;2023-10-31T01:46:25;11.30;99.90
5560;DHT22;2803;47.916;8.074;2023-10-31T01:48:51;11.80;99.90
5560;DHT22;2803;47.916;8.074;2023-10-31T01:51:18;11.70;99.90
5560;DHT22;2803;47.916;8.074;2023-10-31T01:53:45;12.20;99.90
5560;DHT22;2803;47.916;8.074;2023-10-31T01:56:11;11.90;99.90
5560;DHT22;2803;47.916;8.074;2023-10-31T01:58:39;12.20;99.90
5560;DHT22;2803;47.916;8.074;2023-10-31T02:01:08;12.10;99.90
5560;DHT22;2803;47.916;8.074;2023-10-31T02:03:35;11.70;99.90
5560;DHT22;2803;47.916;8.074;2023-10-31T02:06:02;11.80;99.90
5560;DHT22;2803;47.916;8.074;2023-10-31T02:08:29;11.50;99.90
5560;DHT22;2803;47.916;8.074;2023-10-31T02:10:56;11.90;99.90
5560;DHT22;2803;47.916;8.074;2023-10-31T02:13:23;11.90;99.90
5560;DHT22;2803;47.916;8.074;2023-10-31T02:15:49;11.90;99.90
5560;DHT22;2803;47.916;8.074;2023-10-31T02:18:18;11.80;99.90
5560;DHT22;2803;47.916;8.074;2023-10-31T02:20:44;11.90;99.90
5560;DHT22;2803;47.916;8.074;2023-10-31T02:23:15;11.80;99.90
5560;DHT22;2803;47.916;8.074;2023-10-31T02:25:42;11.80;99.90
5560;DHT22;2803;47.916;8.074;2023-10-31T02:28:08;11.70;99.90
5560;DHT22;2803;47.916;8.074;2023-10-31T02:30:35;12.30;99.90
5560;DHT22;2803;47.916;8.074;2023-10-31T02:33:02;12.00;99.90
5560;DHT22;2803;47.916;8.074;2023-10-31T02:35:29;12.00;99.90
5560;DHT22;2803;47.916;8.074;2023-10-31T02:37:55;11.90;99.90
5560;DHT22;2803;47.916;8.074;2023-10-31T02:40:23;12.10;99.90
5560;DHT22;2803;47.916;8.074;2023-10-31T02:42:50;11.80;99.90
5560;DHT22;2803;47.916;8.074;2023-10-31T02:45:17;11.50;99.90
5560;DHT22;2803;47.916;8.074;2023-10-31T02:47:44;11.20;99.90
5560;DHT22;2803;47.916;8.074;2023-10-31T02:50:10;10.90;99.90
5560;DHT22;2803;47.916;8.074;2023-10-31T02:52:37;11.40;99.90
5560;DHT22;2803;47.916;8.074;2023-10-31T02:55:04;11.20;99.90
5560;DHT22;2803;47.916;8.074;2023-10-31T02:57:32;11.20;99.90
5560;DHT22;2803;47.916;8.074;2023-10-31T02:59:59;11.00;99.90
5560;DHT22;2803;47.916;8.074;2023-10-31T03:02:26;10.70;99.90
5560;DHT22;2803;47.916;8.074;2023-10-31T03:04:52;10.60;99.90
5560;DHT22;2803;47.916;8.074;2023-10-31T03:07:19;10.60;99.90
5560;DHT22;2803;47.916;8.074;2023-10-31T03:09:46;10.90;99.90
5560;DHT22;2803;47.916;8.074;2023-10-31T03:12:12;11.10;99.90
5560;DHT22;2803;47.916;8.074;2023-10-31T03:14:41;11.10;99.90
5560;DHT22;2803;47.916;8.074;2023-10-31T03:17:07;11.10;99.90
5560;DHT22;2803;47.916;8.074;2023-10-31T03:19:34;11.20;99.90
5560;DHT22;2803;47.916;8.074;2023-10-31T03:22:01;11.70;99.90
5560;DHT22;2803;47.916;8.074;2023-10-31T03:24:27;11.80;99.90
5560;DHT22;2803;47.916;8.074;2023-10-31T03:26:54;12.10;99.90
5560;DHT22;2803;47.916;8.074;2023-10-31T03:29:21;12.30;99.90
5560;DHT22;2803;47.916;8.074;2023-10-31T03:31:49;11.90;99.90
5560;DHT22;2803;47.916;8.074;2023-10-31T03:34:15;11.50;99.90
5560;DHT22;2803;47.916;8.074;2023-10-31T03:36:44;11.80;99.90
5560;DHT22;2803;47.916;8.074;2023-10-31T03:39:11;11.70;99.90
5560;DHT22;2803;47.916;8.074;2023-10-31T03:41:37;11.30;99.90
5560;DHT22;2803;47.916;8.074;2023-10-31T03:44:04;11.00;99.90
5560;DHT22;2803;47.916;8.074;2023-10-31T03:46:31;10.90;99.90
5560;DHT22;2803;47.916;8.074;2023-10-31T03:48:59;11.00;99.90
5560;DHT22;2803;47.916;8.074;2023-10-31T03:51:25;11.50;99.90
5560;DHT22;2803;47.916;8.074;2023-10-31T03:53:52;11.50;99.90
5560;DHT22;2803;47.916;8.074;2023-10-31T03:56:19;10.80;99.90
5560;DHT22;2803;47.916;8.074;2023-10-31T03:58:45;10.70;99.90
5560;DHT22;2803;47.916;8.074;2023-10-31T04:01:12;11.10;99.90
5560;DHT22;2803;47.916;8.074;2023-10-31T04:03:39;11.10;99.90
5560;DHT22;2803;47.916;8.074;2023-10-31T04:06:07;11.20;99.90
5560;DHT22;2803;47.916;8.074;2023-10-31T04:08:33;11.50;99.90
5560;DHT22;2803;47.916;8.074;2023-10-31T04:11:00;11.60;99.90
5560;DHT22;2803;47.916;8.074;2023-10-31T04:13:27;11.80;99.90
5560;DHT22;2803;47.916;8.074;2023-10-31T04:15:53;11.40;99.90
5560;DHT22;2803;47.916;8.074;2023-10-31T04:18:20;11.70;99.90
5560;DHT22;2803;47.916;8.074;2023-10-31T04:20:47;11.00;99.90
5560;DHT22;2803;47.916;8.074;2023-10-31T04:23:15;11.10;99.90
5560;DHT22;2803;47.916;8.074;2023-10-31T04:25:41;11.00;99.90
5560;DHT22;2803;47.916;8.074;2023-10-31T04:28:08;11.60;99.90
5560;DHT22;2803;47.916;8.074;2023-10-31T04:30:35;11.50;99.90
5560;DHT22;2803;47.916;8.074;2023-10-31T04:33:01;11.30;99.90
5560;DHT22;2803;47.916;8.074;2023-10-31T04:35:28;10.80;99.90
5560;DHT22;2803;47.916;8.074;2023-10-31T04:37:55;10.80;99.90
5560;DHT22;2803;47.916;8.074;2023-10-31T04:40:23;10.90;99.90
5560;DHT22;2803;47.916;8.074;2023-10-31T04:42:50;11.10;99.90
5560;DHT22;2803;47.916;8.074;2023-10-31T04:45:17;10.90;99.90
5560;DHT22;2803;47.916;8.074;2023-10-31T04:47:44;10.60;99.90
5560;DHT22;2803;47.916;8.074;2023-10-31T04:50:11;11.10;99.90
5560;DHT22;2803;47.916;8.074;2023-10-31T04:52:37;10.60;99.90
5560;DHT22;2803;47.916;8.074;2023-10-31T04:55:04;10.40;99.90
5560;DHT22;2803;47.916;8.074;2023-10-31T04:57:32;10.50;99.90
5560;DHT22;2803;47.916;8.074;2023-10-31T04:59:59;11.20;99.90
5560;DHT22;2803;47.916;8.074;2023-10-31T05:02:27;11.70;99.90
5560;DHT22;2803;47.916;8.074;2023-10-31T05:04:54;11.80;99.90
5560;DHT22;2803;47.916;8.074;2023-10-31T05:07:20;12.00;99.90
5560;DHT22;2803;47.916;8.074;2023-10-31T05:09:47;11.90;99.90
5560;DHT22;2803;47.916;8.074;2023-10-31T05:12:14;11.90;99.90
5560;DHT22;2803;47.916;8.074;2023-10-31T05:14:42;12.00;99.90
5560;DHT22;2803;47.916;8.074;2023-10-31T05:17:30;12.00;99.90
5560;DHT22;2803;47.916;8.074;2023-10-31T05:20:19;11.40;99.90
5560;DHT22;2803;47.916;8.074;2023-10-31T05:23:01;10.80;99.90
5560;DHT22;2803;47.916;8.074;2023-10-31T05:25:50;10.80;99.90
5560;DHT22;2803;47.916;8.074;2023-10-31T05:28:32;10.50;99.90
5560;DHT22;2803;47.916;8.074;2023-10-31T05:31:18;10.30;99.90
5560;DHT22;2803;47.916;8.074;2023-10-31T05:34:00;10.70;99.90
5560;DHT22;2803;47.916;8.074;2023-10-31T05:36:41;10.30;99.90
5560;DHT22;2803;47.916;8.074;2023-10-31T05:39:29;10.40;99.90
5560;DHT22;2803;47.916;8.074;2023-10-31T05:42:14;10.30;99.90
5560;DHT22;2803;47.916;8.074;2023-10-31T05:44:59;10.20;99.90
5560;DHT22;2803;47.916;8.074;2023-10-31T05:47:46;10.40;99.90
5560;DHT22;2803;47.916;8.074;2023-10-31T05:50:27;10.70;99.90
5560;DHT22;2803;47.916;8.074;2023-10-31T05:53:12;10.20;99.90
5560;DHT22;2803;47.916;8.074;2023-10-31T05:55:57;9.90;99.90
5560;DHT22;2803;47.916;8.074;2023-10-31T05:58:39;9.90;99.90
5560;DHT22;2803;47.916;8.074;2023-10-31T06:01:24;9.80;99.90
5560;DHT22;2803;47.916;8.074;2023-10-31T06:04:10;9.90;99.90
5560;DHT22;2803;47.916;8.074;2023-10-31T06:06:56;10.10;99.90
5560;DHT22;2803;47.916;8.074;2023-10-31T06:09:37;10.10;99.90
5560;DHT22;2803;47.916;8.074;2023-10-31T06:12:22;10.80;99.90
5560;DHT22;2803;47.916;8.074;2023-10-31T06:15:08;10.60;99.90
5560;DHT22;2803;47.916;8.074;2023-10-31T06:17:50;10.40;99.90
5560;DHT22;2803;47.916;8.074;2023-10-31T06:20:36;10.70;99.90
5560;DHT22;2803;47.916;8.074;2023-10-31T06:23:21;10.80;99.90
5560;DHT22;2803;47.916;8.074;2023-10-31T06:26:04;11.20;99.90
5560;DHT22;2803;47.916;8.074;2023-10-31T06:28:49;10.70;99.90
5560;DHT22;2803;47.916;8.074;2023-10-31T06:31:34;11.20;99.90
5560;DHT22;2803;47.916;8.074;2023-10-31T06:34:16;10.70;99.90
5560;DHT22;2803;47.916;8.074;2023-10-31T06:37:03;11.10;99.90
5560;DHT22;2803;47.916;8.074;2023-10-31T06:39:47;11.40;99.90
5560;DHT22;2803;47.916;8.074;2023-10-31T06:42:30;11.40;99.90
5560;DHT22;2803;47.916;8.074;2023-10-31T06:45:15;11.40;99.90
5560;DHT22;2803;47.916;8.074;2023-10-31T06:47:57;11.20;99.90
5560;DHT22;2803;47.916;8.074;2023-10-31T06:50:42;11.00;99.90
5560;DHT22;2803;47.916;8.074;2023-10-31T06:53:28;11.60;99.90
5560;DHT22;2803;47.916;8.074;2023-10-31T06:56:10;12.00;99.90
5560;DHT22;2803;47.916;8.074;2023-10-31T06:58:55;12.00;99.90
5560;DHT22;2803;47.916;8.074;2023-10-31T07:01:40;12.30;99.90
5560;DHT22;2803;47.916;8.074;2023-10-31T07:04:25;12.20;99.90
5560;DHT22;2803;47.916;8.074;2023-10-31T07:07:10;12.30;99.90
5560;DHT22;2803;47.916;8.074;2023-10-31T07:09:56;12.50;99.90
5560;DHT22;2803;47.916;8.074;2023-10-31T07:12:38;12.70;99.90
5560;DHT22;2803;47.916;8.074;2023-10-31T07:15:23;12.80;99.90
5560;DHT22;2803;47.916;8.074;2023-10-31T07:18:08;12.90;99.90
5560;DHT22;2803;47.916;8.074;2023-10-31T07:20:53;12.50;99.90
5560;DHT22;2803;47.916;8.074;2023-10-31T07:23:35;12.60;99.90
5560;DHT22;2803;47.916;8.074;2023-10-31T07:26:22;12.60;99.90
5560;DHT22;2803;47.916;8.074;2023-10-31T07:29:04;12.80;99.90
5560;DHT22;2803;47.916;8.074;2023-10-31T07:31:48;12.90;99.90
5560;DHT22;2803;47.916;8.074;2023-10-31T07:34:33;12.90;99.90
5560;DHT22;2803;47.916;8.074;2023-10-31T07:37:19;13.00;99.90
5560;DHT22;2803;47.916;8.074;2023-10-31T07:40:01;13.00;99.90
5560;DHT22;2803;47.916;8.074;2023-10-31T07:42:46;13.10;99.90
5560;DHT22;2803;47.916;8.074;2023-10-31T07:45:31;13.20;99.90
5560;DHT22;2803;47.916;8.074;2023-10-31T07:48:16;13.30;99.90
5560;DHT22;2803;47.916;8.074;2023-10-31T07:51:01;13.20;99.90
5560;DHT22;2803;47.916;8.074;2023-10-31T07:53:43;13.30;99.90
5560;DHT22;2803;47.916;8.074;2023-10-31T07:56:27;13.30;99.90
5560;DHT22;2803;47.916;8.074;2023-10-31T07:59:14;13.40;99.90
5560;DHT22;2803;47.916;8.074;2023-10-31T08:01:59;13.40;99.90
5560;DHT22;2803;47.916;8.074;2023-10-31T08:04:42;13.50;99.90
5560;DHT22;2803;47.916;8.074;2023-10-31T08:07:27;13.60;99.90
5560;DHT22;2803;47.916;8.074;2023-10-31T08:10:11;13.50;99.90
5560;DHT22;2803;47.916;8.074;2023-10-31T08:12:56;13.50;99.90
5560;DHT22;2803;47.916;8.074;2023-10-31T08:15:42;13.60;99.90
5560;DHT22;2803;47.916;8.074;2023-10-31T08:18:24;13.30;99.90
5560;DHT22;2803;47.916;8.074;2023-10-31T08:21:06;13.30;99.90
5560;DHT22;2803;47.916;8.074;2023-10-31T08:23:54;13.50;99.90
5560;DHT22;2803;47.916;8.074;2023-10-31T08:26:36;13.40;99.90
5560;DHT22;2803;47.916;8.074;2023-10-31T08:29:18;13.70;99.90
5560;DHT22;2803;47.916;8.074;2023-10-31T08:32:08;13.80;99.90
5560;DHT22;2803;47.916;8.074;2023-10-31T08:34:50;13.80;99.90
5560;DHT22;2803;47.916;8.074;2023-10-31T08:37:35;13.90;99.90
5560;DHT22;2803;47.916;8.074;2023-10-31T08:40:20;13.40;99.90
5560;DHT22;2803;47.916;8.074;2023-10-31T08:43:02;13.40;99.90
5560;DHT22;2803;47.916;8.074;2023-10-31T08:45:48;13.00;99.90
5560;DHT22;2803;47.916;8.074;2023-10-31T08:48:31;13.30;99.90
5560;DHT22;2803;47.916;8.074;2023-10-31T08:51:16;13.30;99.90
5560;DHT22;2803;47.916;8.074;2023-10-31T08:54:01;13.30;99.90
5560;DHT22;2803;47.916;8.074;2023-10-31T08:56:46;13.00;99.90
5560;DHT22;2803;47.916;8.074;2023-10-31T08:59:28;12.70;99.90
5560;DHT22;2803;47.916;8.074;2023-10-31T09:02:26;12.20;99.90
5560;DHT22;2803;47.916;8.074;2023-10-31T09:04:53;11.80;99.90
5560;DHT22;2803;47.916;8.074;2023-10-31T09:07:20;12.40;99.90
5560;DHT22;2803;47.916;8.074;2023-10-31T09:10:03;12.50;99.90
5560;DHT22;2803;47.916;8.074;2023-10-31T09:12:30;12.50;99.90
5560;DHT22;2803;47.916;8.074;2023-10-31T09:15:22;13.00;99.90
5560;DHT22;2803;47.916;8.074;2023-10-31T09:18:04;12.90;99.90
5560;DHT22;2803;47.916;8.074;2023-10-31T09:20:51;12.20;99.90
5560;DHT22;2803;47.916;8.074;2023-10-31T09:23:34;11.90;99.90
5560;DHT22;2803;47.916;8.074;2023-10-31T09:26:20;12.10;99.90
5560;DHT22;2803;47.916;8.074;2023-10-31T09:29:03;12.30;99.90
5560;DHT22;2803;47.916;8.074;2023-10-31T09:31:48;11.90;99.90
5560;DHT22;2803;47.916;8.074;2023-10-31T09:34:30;12.10;99.90
5560;DHT22;2803;47.916;8.074;2023-10-31T09:37:17;12.70;99.90
5560;DHT22;2803;47.916;8.074;2023-10-31T09:40:02;13.00;99.90
5560;DHT22;2803;47.916;8.074;2023-10-31T09:42:44;12.70;99.90
5560;DHT22;2803;47.916;8.074;2023-10-31T09:45:29;13.00;99.90
5560;DHT22;2803;47.916;8.074;2023-10-31T09:48:14;13.20;99.90
5560;DHT22;2803;47.916;8.074;2023-10-31T09:50:56;13.50;99.90
5560;DHT22;2803;47.916;8.074;2023-10-31T09:53:44;12.70;99.90
5560;DHT22;2803;47.916;8.074;2023-10-31T09:56:26;13.20;99.90
5560;DHT22;2803;47.916;8.074;2023-10-31T09:59:14;12.90;99.90
5560;DHT22;2803;47.916;8.074;2023-10-31T10:01:53;12.80;99.90
5560;DHT22;2803;47.916;8.074;2023-10-31T10:04:38;13.20;99.90
5560;DHT22;2803;47.916;8.074;2023-10-31T10:07:26;13.10;99.90
5560;DHT22;2803;47.916;8.074;2023-10-31T10:10:11;13.30;99.90
5560;DHT22;2803;47.916;8.074;2023-10-31T10:12:53;13.80;99.90
5560;DHT22;2803;47.916;8.074;2023-10-31T10:15:43;14.10;99.90
5560;DHT22;2803;47.916;8.074;2023-10-31T10:18:26;14.30;99.90
5560;DHT22;2803;47.916;8.074;2023-10-31T10:21:08;14.30;99.90
5560;DHT22;2803;47.916;8.074;2023-10-31T10:23:51;14.20;99.90
5560;DHT22;2803;47.916;8.074;2023-10-31T10:26:36;14.30;99.90
5560;DHT22;2803;47.916;8.074;2023-10-31T10:29:18;13.90;99.90
5560;DHT22;2803;47.916;8.074;2023-10-31T10:32:05;14.10;99.90
5560;DHT22;2803;47.916;8.074;2023-10-31T10:34:49;14.40;99.90
5560;DHT22;2803;47.916;8.074;2023-10-31T10:37:36;14.40;99.90
5560;DHT22;2803;47.916;8.074;2023-10-31T10:40:16;14.60;99.90
5560;DHT22;2803;47.916;8.074;2023-10-31T10:43:05;14.30;99.90
5560;DHT22;2803;47.916;8.074;2023-10-31T10:45:46;14.20;99.90
5560;DHT22;2803;47.916;8.074;2023-10-31T10:48:29;14.50;99.90
5560;DHT22;2803;47.916;8.074;2023-10-31T10:51:21;14.50;99.90
5560;DHT22;2803;47.916;8.074;2023-10-31T10:54:05;14.50;99.90
5560;DHT22;2803;47.916;8.074;2023-10-31T10:56:49;14.20;99.90
5560;DHT22;2803;47.916;8.074;2023-10-31T10:59:40;13.40;99.90
5560;DHT22;2803;47.916;8.074;2023-10-31T11:02:13;13.80;99.90
5560;DHT22;2803;47.916;8.074;2023-10-31T11:05:05;13.80;99.90
5560;DHT22;2803;47.916;8.074;2023-10-31T11:07:40;13.60;99.90
5560;DHT22;2803;47.916;8.074;2023-10-31T11:10:25;13.10;99.90
5560;DHT22;2803;47.916;8.074;2023-10-31T11:12:53;13.10;99.90
5560;DHT22;2803;47.916;8.074;2023-10-31T11:15:22;12.80;99.90
5560;DHT22;2803;47.916;8.074;2023-10-31T11:17:50;12.60;99.90
5560;DHT22;2803;47.916;8.074;2023-10-31T11:20:18;13.00;99.90
5560;DHT22;2803;47.916;8.074;2023-10-31T11:22:46;13.20;99.90
5560;DHT22;2803;47.916;8.074;2023-10-31T11:25:16;12.90;99.90
5560;DHT22;2803;47.916;8.074;2023-10-31T11:27:44;13.00;99.90
5560;DHT22;2803;47.916;8.074;2023-10-31T11:30:22;13.10;99.90
5560;DHT22;2803;47.916;8.074;2023-10-31T11:32:53;12.90;99.90
5560;DHT22;2803;47.916;8.074;2023-10-31T11:35:21;13.20;99.90
5560;DHT22;2803;47.916;8.074;2023-10-31T11:37:49;13.50;99.90
5560;DHT22;2803;47.916;8.074;2023-10-31T11:40:26;13.10;99.90
5560;DHT22;2803;47.916;8.074;2023-10-31T11:42:57;13.00;99.90
5560;DHT22;2803;47.916;8.074;2023-10-31T11:45:27;13.40;99.90
5560;DHT22;2803;47.916;8.074;2023-10-31T11:47:55;13.40;99.90
5560;DHT22;2803;47.916;8.074;2023-10-31T11:50:21;13.60;99.90
5560;DHT22;2803;47.916;8.074;2023-10-31T11:53:02;13.70;99.90
5560;DHT22;2803;47.916;8.074;2023-10-31T11:55:30;13.90;99.90
5560;DHT22;2803;47.916;8.074;2023-10-31T11:57:59;14.00;99.90
5560;DHT22;2803;47.916;8.074;2023-10-31T12:00:27;13.70;99.90
5560;DHT22;2803;47.916;8.074;2023-10-31T12:02:58;13.60;99.90
5560;DHT22;2803;47.916;8.074;2023-10-31T12:05:24;14.00;99.90
5560;DHT22;2803;47.916;8.074;2023-10-31T12:07:51;14.20;99.90
5560;DHT22;2803;47.916;8.074;2023-10-31T12:10:22;13.90;99.90
5560;DHT22;2803;47.916;8.074;2023-10-31T12:12:49;14.00;99.90
5560;DHT22;2803;47.916;8.074;2023-10-31T12:15:16;14.30;99.90
5560;DHT22;2803;47.916;8.074;2023-10-31T12:17:44;14.50;99.90
5560;DHT22;2803;47.916;8.074;2023-10-31T12:20:11;14.60;99.90
5560;DHT22;2803;47.916;8.074;2023-10-31T12:22:38;14.70;99.90
5560;DHT22;2803;47.916;8.074;2023-10-31T12:25:07;14.70;99.90
5560;DHT22;2803;47.916;8.074;2023-10-31T12:27:42;14.70;99.90
5560;DHT22;2803;47.916;8.074;2023-10-31T12:30:10;14.70;99.90
5560;DHT22;2803;47.916;8.074;2023-10-31T12:32:37;14.80;99.90
5560;DHT22;2803;47.916;8.074;2023-10-31T12:35:05;14.80;99.90
5560;DHT22;2803;47.916;8.074;2023-10-31T12:37:32;14.90;99.90
5560;DHT22;2803;47.916;8.074;2023-10-31T12:40:00;14.40;99.90
5560;DHT22;2803;47.916;8.074;2023-10-31T12:42:30;14.50;99.90
5560;DHT22;2803;47.916;8.074;2023-10-31T12:44:58;14.50;99.90
5560;DHT22;2803;47.916;8.074;2023-10-31T12:47:25;13.90;99.90
5560;DHT22;2803;47.916;8.074;2023-10-31T12:50:07;13.90;99.90
5560;DHT22;2803;47.916;8.074;2023-10-31T12:52:50;13.80;99.90
5560;DHT22;2803;47.916;8.074;2023-10-31T12:55:19;14.00;99.90
5560;DHT22;2803;47.916;8.074;2023-10-31T12:57:46;14.20;99.90
5560;DHT22;2803;47.916;8.074;2023-10-31T13:00:15;14.20;99.90
5560;DHT22;2803;47.916;8.074;2023-10-31T13:02:50;13.90;99.90
5560;DHT22;2803;47.916;8.074;2023-10-31T13:05:18;14.00;99.90
5560;DHT22;2803;47.916;8.074;2023-10-31T13:07:49;14.10;99.90
5560;DHT22;2803;47.916;8.074;2023-10-31T13:10:17;14.00;99.90
5560;DHT22;2803;47.916;8.074;2023-10-31T13:12:44;13.80;99.90
5560;DHT22;2803;47.916;8.074;2023-10-31T13:15:12;13.50;99.90
5560;DHT22;2803;47.916;8.074;2023-10-31T13:17:39;13.10;99.90
5560;DHT22;2803;47.916;8.074;2023-10-31T13:20:08;12.60;99.90
5560;DHT22;2803;47.916;8.074;2023-10-31T13:22:36;12.90;99.90
5560;DHT22;2803;47.916;8.074;2023-10-31T13:25:03;12.30;99.90
5560;DHT22;2803;47.916;8.074;2023-10-31T13:27:30;12.20;99.90
5560;DHT22;2803;47.916;8.074;2023-10-31T13:29:57;12.20;99.90
5560;DHT22;2803;47.916;8.074;2023-10-31T13:32:23;12.30;99.90
5560;DHT22;2803;47.916;8.074;2023-10-31T13:34:50;12.20;99.90
5560;DHT22;2803;47.916;8.074;2023-10-31T13:37:17;12.30;99.90
5560;DHT22;2803;47.916;8.074;2023-10-31T13:39:45;12.80;99.90
5560;DHT22;2803;47.916;8.074;2023-10-31T13:42:12;12.90;99.90
5560;DHT22;2803;47.916;8.074;2023-10-31T13:44:39;13.00;99.90
5560;DHT22;2803;47.916;8.074;2023-10-31T13:47:06;12.60;99.90
5560;DHT22;2803;47.916;8.074;2023-10-31T13:49:33;12.40;99.90
5560;DHT22;2803;47.916;8.074;2023-10-31T13:52:00;12.40;99.90
5560;DHT22;2803;47.916;8.074;2023-10-31T13:54:26;12.40;99.90
5560;DHT22;2803;47.916;8.074;2023-10-31T13:56:54;12.20;99.90
5560;DHT22;2803;47.916;8.074;2023-10-31T13:59:21;12.00;99.90
5560;DHT22;2803;47.916;8.074;2023-10-31T14:01:48;12.00;99.90
5560;DHT22;2803;47.916;8.074;2023-10-31T14:04:15;12.00;99.90
5560;DHT22;2803;47.916;8.074;2023-10-31T14:06:42;12.30;99.90
5560;DHT22;2803;47.916;8.074;2023-10-31T14:09:10;12.80;99.90
5560;DHT22;2803;47.916;8.074;2023-10-31T14:11:38;12.90;99.90
5560;DHT22;2803;47.916;8.074;2023-10-31T14:14:06;13.10;99.90
5560;DHT22;2803;47.916;8.074;2023-10-31T14:16:35;13.50;99.90
5560;DHT22;2803;47.916;8.074;2023-10-31T14:19:02;13.60;99.90
5560;DHT22;2803;47.916;8.074;2023-10-31T14:21:29;13.70;99.90
5560;DHT22;2803;47.916;8.074;2023-10-31T14:23:56;13.80;99.90
5560;DHT22;2803;47.916;8.074;2023-10-31T14:26:23;13.90;99.90
5560;DHT22;2803;47.916;8.074;2023-10-31T14:28:50;13.90;99.90
5560;DHT22;2803;47.916;8.074;2023-10-31T14:31:18;13.80;99.90
5560;DHT22;2803;47.916;8.074;2023-10-31T14:33:46;13.80;99.90
5560;DHT22;2803;47.916;8.074;2023-10-31T14:36:14;13.30;99.90
5560;DHT22;2803;47.916;8.074;2023-10-31T14:38:41;13.40;99.90
5560;DHT22;2803;47.916;8.074;2023-10-31T14:41:08;13.20;99.90
5560;DHT22;2803;47.916;8.074;2023-10-31T14:43:35;13.30;99.90
5560;DHT22;2803;47.916;8.074;2023-10-31T14:46:02;13.20;99.90
5560;DHT22;2803;47.916;8.074;2023-10-31T14:48:31;12.50;99.90
5560;DHT22;2803;47.916;8.074;2023-10-31T14:50:58;12.50;99.90
5560;DHT22;2803;47.916;8.074;2023-10-31T14:53:24;12.00;99.90
5560;DHT22;2803;47.916;8.074;2023-10-31T14:55:51;11.70;99.90
5560;DHT22;2803;47.916;8.074;2023-10-31T14:58:18;11.70;99.90
5560;DHT22;2803;47.916;8.074;2023-10-31T15:00:44;12.30;99.90
5560;DHT22;2803;47.916;8.074;2023-10-31T15:03:11;12.10;99.90
5560;DHT22;2803;47.916;8.074;2023-10-31T15:05:40;12.00;99.90
5560;DHT22;2803;47.916;8.074;2023-10-31T15:08:08;11.70;99.90
5560;DHT22;2803;47.916;8.074;2023-10-31T15:10:35;12.00;99.90
5560;DHT22;2803;47.916;8.074;2023-10-31T15:13:02;12.00;99.90
5560;DHT22;2803;47.916;8.074;2023-10-31T15:15:29;12.20;99.90
5560;DHT22;2803;47.916;8.074;2023-10-31T15:17:56;12.10;99.90
5560;DHT22;2803;47.916;8.074;2023-10-31T15:20:22;12.20;99.90
5560;DHT22;2803;47.916;8.074;2023-10-31T15:22:50;11.80;99.90
5560;DHT22;2803;47.916;8.074;2023-10-31T15:25:17;11.40;99.90
5560;DHT22;2803;47.916;8.074;2023-10-31T15:27:44;11.50;99.90
5560;DHT22;2803;47.916;8.074;2023-10-31T15:30:10;11.90;99.90
5560;DHT22;2803;47.916;8.074;2023-10-31T15:32:38;11.50;99.90
5560;DHT22;2803;47.916;8.074;2023-10-31T15:35:05;11.70;99.90
5560;DHT22;2803;47.916;8.074;2023-10-31T15:37:32;11.60;99.90
5560;DHT22;2803;47.916;8.074;2023-10-31T15:40:00;11.40;99.90
5560;DHT22;2803;47.916;8.074;2023-10-31T15:42:29;11.50;99.90
5560;DHT22;2803;47.916;8.074;2023-10-31T15:44:55;11.50;99.90
5560;DHT22;2803;47.916;8.074;2023-10-31T15:47:22;11.40;99.90
5560;DHT22;2803;47.916;8.074;2023-10-31T15:49:49;11.10;99.90
5560;DHT22;2803;47.916;8.074;2023-10-31T15:52:16;11.60;99.90
5560;DHT22;2803;47.916;8.074;2023-10-31T15:54:42;11.30;99.90
5560;DHT22;2803;47.916;8.074;2023-10-31T15:57:10;11.20;99.90
5560;DHT22;2803;47.916;8.074;2023-10-31T15:59:37;11.30;99.90
5560;DHT22;2803;47.916;8.074;2023-10-31T16:02:04;11.20;99.90
5560;DHT22;2803;47.916;8.074;2023-10-31T16:04:31;11.30;99.90
5560;DHT22;2803;47.916;8.074;2023-10-31T16:06:57;11.30;99.90
5560;DHT22;2803;47.916;8.074;2023-10-31T16:09:24;11.20;99.90
5560;DHT22;2803;47.916;8.074;2023-10-31T16:11:50;11.70;99.90
5560;DHT22;2803;47.916;8.074;2023-10-31T16:14:18;11.70;99.90
5560;DHT22;2803;47.916;8.074;2023-10-31T16:16:48;11.80;99.90
5560;DHT22;2803;47.916;8.074;2023-10-31T16:19:14;12.00;99.90
5560;DHT22;2803;47.916;8.074;2023-10-31T16:21:41;12.10;99.90
5560;DHT22;2803;47.916;8.074;2023-10-31T16:24:08;12.00;99.90
5560;DHT22;2803;47.916;8.074;2023-10-31T16:26:35;12.30;99.90
5560;DHT22;2803;47.916;8.074;2023-10-31T16:29:02;12.40;99.90
5560;DHT22;2803;47.916;8.074;2023-10-31T16:31:30;11.90;99.90
5560;DHT22;2803;47.916;8.074;2023-10-31T16:33:57;12.00;99.90
5560;DHT22;2803;47.916;8.074;2023-10-31T16:36:24;12.00;99.90
5560;DHT22;2803;47.916;8.074;2023-10-31T16:38:51;12.00;99.90